Anantapur, India
Current Conditions -  °F | °C
As of 7:00 AM on Tuesday 25 Nov 2014 (Local Time) from VOBL Reporting Station
Haze Haze  
Wind Chill: 70°   Ceiling: 500
Heat Index: 70°   Visibility: 1.2mi
Dew Point: 70°   Wind: 7mph
Humidity: 100%   Direction: 40°NE
Pressure: 30.03"   Gusts: NA
Location:  14.68°N, 77.62°E
Report Text: VOBL 250200Z 04006KT 2000 BR BKN005 21/21 Q1017 BECMG 3000 HZSCT008
Loading
Personal Weather Stations






























Interactive Weather Map New forecast layout! Learn more

10-Day Weather Forecast

Advertisements
Track Severe Weather on mobile